Last Straw — WAI7550 — position and weather

sailwx.info

Track history (hours):
 
Tides and Currents Weather Stations Pressure Air Temp Water Temp Dewpoint Dewpoint Depression Visibility Wind Speed Wind Dir Waves Ship Positions

Last Straw

Owner: HEARNE, BRETT, NEWPORT, OR. More information available from US FCC via Universal Licensing System and Coast Guard Vessel Documentation Center.

Last reported at 2018-Jul-19 03:00 UTC. Time now 2018-Jul-20 06:44 UTC.
Position N 38°50' W 123°40'.

Length 41 m; draft 6 m.

Type: Fishing. MMSI: 366245070.

Date/timePositionNaut miles runAvg speedWind from/ knotsBaromVisibWave heightAir tempDewpointWater temp
2018-Jul-19 03:00N 38°50' W 123°40'4 7.5
2018-Jul-19 02:28N 38°47' W 123°36'16 7.7
2018-Jul-19 00:21N 38°35' W 123°22'3 8.1
2018-Jul-19 00:00N 38°33' W 123°20'4 8.1
2018-Jul-18 23:30N 38°30' W 123°16'4 8.1
2018-Jul-18 23:00N 38°27' W 123°12'4 8.0
2018-Jul-18 22:30N 38°25' W 123°09'4 8.1
2018-Jul-18 22:00N 38°21' W 123°06'4 8.4
2018-Jul-18 21:30N 38°17' W 123°05'4 8.1
2018-Jul-18 21:00N 38°13' W 123°04'4 8.1
2018-Jul-18 20:30N 38°09' W 123°03'4 7.9
2018-Jul-18 20:00N 38°05' W 123°03'4 7.6
2018-Jul-18 19:30N 38°01' W 123°02'4 7.7
2018-Jul-18 19:00N 37°58' W 123°00'4 7.7
2018-Jul-18 18:30N 37°55' W 122°57'4 7.4
2018-Jul-18 18:00N 37°52' W 122°54'4 7.2
2018-Jul-18 17:29N 37°48' W 122°53'4 7.5
2018-Jul-18 17:00N 37°45' W 122°51'4 7.6
2018-Jul-18 16:28N 37°42' W 122°48'3 7.3
2018-Jul-18 16:00N 37°39' W 122°46'4 7.4
2018-Jul-18 15:28N 37°35' W 122°44'4 7.6
2018-Jul-18 15:00N 37°33' W 122°41'4 7.8
2018-Jul-18 14:27N 37°29' W 122°38'8 8.0
2018-Jul-18 13:30N 37°22' W 122°33'4 7.9
2018-Jul-18 12:57N 37°18' W 122°31'4 8.1
2018-Jul-18 12:30N 37°15' W 122°29'4 8.0
2018-Jul-18 12:00N 37°12' W 122°26'4 7.9
2018-Jul-18 11:30N 37°08' W 122°24'8 8.0
2018-Jul-18 10:30N 37°02' W 122°17'4 8.2
2018-Jul-18 10:00N 36°59' W 122°14'4 7.9
2018-Jul-18 09:30N 36°56' W 122°11'4 7.9
2018-Jul-18 09:00N 36°53' W 122°08'4 8.1
2018-Jul-18 08:30N 36°50' W 122°05'4 7.7
2018-Jul-18 08:00N 36°47' W 122°02'4 7.7
2018-Jul-18 07:30N 36°43' W 122°00'4 7.6
2018-Jul-18 07:00N 36°39' W 121°60'4 7.7
2018-Jul-18 06:30N 36°35' W 121°59'4 7.5
2018-Jul-18 06:00N 36°32' W 121°58'4 7.4
2018-Jul-18 05:30N 36°28' W 121°57'4 7.5
2018-Jul-18 05:00N 36°25' W 121°56'4 7.4
2018-Jul-18 04:30N 36°21' W 121°55'4 7.1
2018-Jul-18 04:00N 36°17' W 121°54'4 7.6
2018-Jul-18 03:30N 36°15' W 121°51'4 7.9
2018-Jul-18 03:00N 36°13' W 121°47'4 8.3
2018-Jul-18 02:30N 36°10' W 121°42'4 8.0
2018-Jul-18 02:00N 36°07' W 121°39'4 8.1
2018-Jul-18 01:30N 36°04' W 121°37'7 7.3
2018-Jul-18 00:29N 35°58' W 121°31'4 7.5
2018-Jul-17 23:58N 35°55' W 121°30'4 7.5
2018-Jul-17 23:29N 35°52' W 121°27'4 7.6
2018-Jul-17 22:56N 35°48' W 121°24'4 7.7
2018-Jul-17 22:27N 35°45' W 121°22'4 7.6
2018-Jul-17 21:53N 35°41' W 121°19'5 7.2
2018-Jul-17 21:09N 35°37' W 121°15'1 6.9
2018-Jul-17 21:00N 35°36' W 121°15'4 7.1
2018-Jul-17 20:23N 35°32' W 121°12'3 7.3
2018-Jul-17 20:00N 35°30' W 121°10'4 7.8
2018-Jul-17 19:30N 35°27' W 121°07'4 7.9
2018-Jul-17 18:59N 35°23' W 121°05'4 7.6
2018-Jul-17 18:29N 35°20' W 121°03'4 7.6
2018-Jul-17 17:58N 35°16' W 121°00'5 7.6
2018-Jul-17 17:18N 35°12' W 120°57'2 7.7
2018-Jul-17 17:00N 35°10' W 120°55'4 7.7
2018-Jul-17 16:30N 35°07' W 120°53'9 7.6
2018-Jul-17 15:19N 34°59' W 120°48'2 7.9
2018-Jul-17 15:00N 34°57' W 120°47'4 7.7
2018-Jul-17 14:30N 34°53' W 120°46'4 7.7
2018-Jul-17 14:00N 34°49' W 120°45'4 7.8
2018-Jul-17 13:30N 34°45' W 120°44'4 7.9
2018-Jul-17 13:00N 34°42' W 120°42'4 7.8
2018-Jul-17 12:29N 34°38' W 120°41'4 7.7
2018-Jul-17 12:00N 34°34' W 120°40'4 7.6
2018-Jul-17 11:30N 34°32' W 120°36'4 7.6
2018-Jul-17 11:00N 34°30' W 120°32'4 7.3
2018-Jul-17 10:30N 34°27' W 120°29'4 7.9
2018-Jul-17 10:00N 34°25' W 120°25'4 8.7
2018-Jul-17 09:29N 34°25' W 120°20'4 8.9
2018-Jul-17 08:59N 34°25' W 120°14'4 8.8
2018-Jul-17 08:29N 34°25' W 120°09'4 8.5
2018-Jul-17 07:58N 34°24' W 120°04'4 8.6
2018-Jul-17 07:28N 34°23' W 119°59'4 8.4
2018-Jul-17 07:00N 34°22' W 119°54'4 8.4
2018-Jul-17 06:30N 34°21' W 119°49'4 7.9
2018-Jul-17 05:58N 34°20' W 119°44'4 7.5
2018-Jul-17 05:30N 34°19' W 119°40'4 7.4
2018-Jul-17 04:59N 34°17' W 119°36'3 7.2
2018-Jul-17 04:30N 34°15' W 119°33'3 6.9
2018-Jul-17 04:00N 34°12' W 119°31'3 6.7
2018-Jul-17 03:30N 34°10' W 119°28'3 6.7
2018-Jul-17 03:00N 34°08' W 119°24'3 6.8
2018-Jul-17 02:30N 34°07' W 119°20'4 7.4
2018-Jul-17 02:00N 34°06' W 119°16'4 6.9
2018-Jul-17 01:29N 34°05' W 119°12'3 7.0
2018-Jul-17 01:00N 34°03' W 119°08'4 7.7
2018-Jul-17 00:29N 34°02' W 119°04'7 7.5
2018-Jul-16 23:30N 33°59' W 118°55'4 7.6
2018-Jul-16 23:00N 33°58' W 118°51'4 7.4
2018-Jul-16 22:30N 33°56' W 118°47'4 7.5
2018-Jul-16 22:00N 33°55' W 118°43'4 7.9
2018-Jul-16 21:29N 33°53' W 118°38'11 7.5
2018-Jul-16 20:03N 33°47' W 118°28'0 7.6
2018-Jul-16 20:00N 33°47' W 118°27'4 7.8
2018-Jul-16 19:30N 33°44' W 118°24'4 7.7
2018-Jul-16 19:00N 33°43' W 118°20'4 7.5
2018-Jul-16 18:30N 33°42' W 118°16'4 8.0
2018-Jul-16 18:00N 33°43' W 118°11'2 4.8
2018-Jul-16 17:30N 33°46' W 118°12'2 4.4
2018-Jul-16 17:00N 33°44' W 118°11'4 8.3
2018-Jul-16 16:30N 33°40' W 118°08'4 8.0
2018-Jul-16 16:00N 33°37' W 118°05'4 7.8
2018-Jul-16 15:30N 33°36' W 118°01'4 7.1
2018-Jul-16 15:00N 33°34' W 117°57'1 2.0
2018-Jul-16 14:30N 33°34' W 117°56'2 3.3
2018-Jul-16 14:00N 33°34' W 117°54'1 2.6
2018-Jul-16 13:30N 33°34' W 117°52'1 2.2
2018-Jul-16 13:00N 33°34' W 117°51'0 0.2
2018-Jul-16 12:30N 33°34' W 117°51'2 3.6
2018-Jul-16 12:00N 33°34' W 117°53'4 8.3
2018-Jul-16 11:30N 33°33' W 117°58'4 8.2
2018-Jul-16 11:00N 33°32' W 118°03'4 7.9
2018-Jul-16 10:30N 33°32' W 118°08'4 7.7
2018-Jul-16 09:59N 33°31' W 118°12'4 7.7
2018-Jul-16 09:30N 33°30' W 118°17'3 6.8
2018-Jul-16 09:00N 33°29' W 118°21'4 6.7
2018-Jul-16 08:24N 33°28' W 118°25'3 7.1
2018-Jul-16 08:00N 33°27' W 118°29'1 0.2
2018-Jul-16 02:00N 33°27' W 118°30'0 0.0
2018-Jul-16 01:17N 33°27' W 118°30'0 0.1
2018-Jul-16 00:56N 33°27' W 118°30'0 0.0
2018-Jul-15 23:51N 33°27' W 118°30'0 0.0
2018-Jul-15 23:30N 33°27' W 118°30'1 2.2
2018-Jul-15 23:00N 33°28' W 118°30'2 4.2
2018-Jul-15 22:30N 33°30' W 118°31'2 3.4
2018-Jul-15 21:59N 33°31' W 118°32'1 2.0
2018-Jul-15 21:30N 33°31' W 118°34'0 0.7
2018-Jul-15 20:58N 33°31' W 118°34'1 2.0
2018-Jul-15 20:17N 33°31' W 118°32'2 7.2
2018-Jul-15 20:00N 33°31' W 118°35'6 6.9
2018-Jul-15 19:08N 33°25' W 118°34'3 8.3
2018-Jul-15 18:50N 33°23' W 118°32'2 5.8
2018-Jul-15 18:29N 33°21' W 118°30'1 2.0
2018-Jul-15 17:59N 33°22' W 118°30'2 4.9
2018-Jul-15 17:30N 33°20' W 118°30'4 7.7
2018-Jul-15 17:00N 33°16' W 118°28'4 7.8
2018-Jul-15 16:30N 33°13' W 118°26'2 4.4
2018-Jul-15 15:57N 33°11' W 118°25'0 0.5
2018-Jul-15 15:30N 33°11' W 118°25'1 1.5
2018-Jul-15 15:00N 33°11' W 118°25'1 2.5
2018-Jul-15 14:30N 33°12' W 118°24'3 5.8
2018-Jul-15 14:00N 33°15' W 118°23'4 6.5
2018-Jul-15 13:27N 33°18' W 118°20'3 6.0
2018-Jul-15 13:00N 33°20' W 118°18'2 3.6
2018-Jul-15 12:30N 33°21' W 118°19'0 0.0
2018-Jul-15 12:00N 33°21' W 118°19'0 0.0
2018-Jul-15 11:30N 33°21' W 118°19'0 0.1
2018-Jul-15 11:00N 33°21' W 118°19'0 0.1
2018-Jul-15 10:30N 33°21' W 118°19'0 0.0
2018-Jul-15 10:00N 33°21' W 118°19'0 0.0
2018-Jul-15 09:30N 33°21' W 118°19'0 0.0
2018-Jul-15 09:00N 33°21' W 118°19'0 0.0
2018-Jul-15 08:30N 33°21' W 118°19'0 0.1
2018-Jul-15 08:00N 33°21' W 118°19'0 0.0
2018-Jul-15 07:30N 33°21' W 118°19'0 0.0
2018-Jul-15 07:00N 33°21' W 118°19'0 0.0
2018-Jul-15 06:30N 33°21' W 118°19'0 0.0
2018-Jul-15 06:00N 33°21' W 118°19'0 0.0
2018-Jul-15 05:30N 33°21' W 118°19'0 0.0
2018-Jul-15 05:00N 33°21' W 118°19'0 0.1
2018-Jul-15 04:30N 33°21' W 118°19'0 0.0
2018-Jul-15 04:00N 33°21' W 118°19'0 0.0
2018-Jul-15 03:30N 33°21' W 118°19'0 0.0
2018-Jul-15 03:00N 33°21' W 118°19'0 0.0
2018-Jul-15 02:30N 33°21' W 118°19'0 0.0
2018-Jul-15 02:00N 33°21' W 118°19'0 0.0
2018-Jul-15 01:30N 33°21' W 118°19'0 0.0
2018-Jul-15 01:00N 33°21' W 118°19'0 0.0
2018-Jul-15 00:30N 33°21' W 118°19'0 0.0
2018-Jul-15 00:00N 33°21' W 118°19'0 0.0
2018-Jul-14 23:30N 33°21' W 118°19'0 0.0
2018-Jul-14 23:00N 33°21' W 118°19'0 0.0
2018-Jul-14 22:30N 33°21' W 118°19'0 0.0
2018-Jul-14 22:00N 33°21' W 118°19'0 0.0
2018-Jul-14 21:30N 33°21' W 118°19'0 0.0
2018-Jul-14 21:00N 33°21' W 118°19'0 0.1
2018-Jul-14 20:30N 33°21' W 118°19'0 0.0
2018-Jul-14 20:00N 33°21' W 118°19'0 0.0
2018-Jul-14 19:29N 33°21' W 118°19'0 0.0
2018-Jul-14 19:00N 33°21' W 118°19'0 0.0
2018-Jul-14 18:30N 33°21' W 118°19'0 0.0
2018-Jul-14 18:00N 33°21' W 118°19'0 0.0
2018-Jul-14 17:30N 33°21' W 118°19'0 0.0
2018-Jul-14 17:00N 33°21' W 118°19'0 0.0
2018-Jul-14 16:30N 33°21' W 118°19'4 7.0
2018-Jul-14 16:00N 33°23' W 118°16'4 7.5
2018-Jul-14 15:30N 33°25' W 118°12'4 7.8
2018-Jul-14 15:00N 33°26' W 118°07'7 7.4
2018-Jul-14 14:00N 33°29' W 117°59'1 1.1
2018-Jul-14 13:28N 33°29' W 118°00'2 2.9
2018-Jul-14 12:55N 33°29' W 118°02'1 1.9
2018-Jul-14 12:30N 33°29' W 118°01'1 1.7
2018-Jul-14 12:00N 33°29' W 118°00'2 4.1
2018-Jul-14 11:30N 33°29' W 117°58'3 5.0
2018-Jul-14 11:00N 33°28' W 117°55'2 3.1
2018-Jul-14 10:30N 33°28' W 117°53'0 0.3
2018-Jul-14 10:00N 33°28' W 117°53'0 0.2
2018-Jul-14 09:30N 33°28' W 117°53'1 1.7
2018-Jul-14 09:00N 33°28' W 117°53'2 3.5
2018-Jul-14 08:30N 33°26' W 117°51'2 4.7
2018-Jul-14 08:00N 33°25' W 117°49'2 4.9
2018-Jul-14 07:30N 33°23' W 117°47'3 5.4
2018-Jul-14 07:00N 33°21' W 117°45'3 5.7
2018-Jul-14 06:30N 33°19' W 117°42'3 5.7
2018-Jul-14 06:00N 33°17' W 117°40'3 5.7
2018-Jul-14 05:30N 33°15' W 117°37'3 5.5
2018-Jul-14 05:00N 33°14' W 117°34'3 5.6
2018-Jul-14 04:30N 33°12' W 117°31'3 5.6
2018-Jul-14 04:00N 33°11' W 117°28'1 1.2
2018-Jul-14 03:30N 33°11' W 117°28'2 3.5
2018-Jul-14 03:00N 33°10' W 117°26'1 3.0
2018-Jul-14 02:30N 33°10' W 117°24'1 2.2
2018-Jul-14 02:00N 33°09' W 117°23'1 2.0
2018-Jul-14 01:30N 33°08' W 117°24'3 6.0
2018-Jul-14 01:00N 33°05' W 117°24'1 1.3
2018-Jul-14 00:30N 33°05' W 117°24'1 2.5
2018-Jul-14 00:00N 33°04' W 117°23'0 0.4
2018-Jul-13 23:30N 33°04' W 117°23'1 1.1
2018-Jul-13 23:00N 33°03' W 117°23'1 1.9
2018-Jul-13 22:30N 33°03' W 117°22'1 2.1
2018-Jul-13 22:00N 33°02' W 117°22'0 0.6
2018-Jul-13 21:30N 33°02' W 117°22'0 0.8
2018-Jul-13 21:00N 33°01' W 117°22'1 2.7
2018-Jul-13 20:30N 33°00' W 117°21'0 0.4
2018-Jul-13 20:00N 33°00' W 117°21'2 4.2
2018-Jul-13 19:30N 33°02' W 117°23'1 1.2
2018-Jul-13 19:00N 33°01' W 117°23'2 3.2
2018-Jul-13 18:30N 32°60' W 117°22'4 7.2
2018-Jul-13 18:00N 32°60' W 117°26'4 7.5
2018-Jul-13 17:30N 32°60' W 117°31'3 5.2
2018-Jul-13 17:00N 32°59' W 117°34'0 0.7
2018-Jul-13 16:30N 32°59' W 117°34'1 2.1
2018-Jul-13 16:00N 32°58' W 117°34'3 5.8
2018-Jul-13 15:30N 32°55' W 117°33'4 7.7
2018-Jul-13 15:00N 32°51' W 117°31'5 5.4
2018-Jul-13 14:00N 32°46' W 117°29'0 0.9
2018-Jul-13 13:30N 32°47' W 117°29'1 2.2
2018-Jul-13 13:00N 32°48' W 117°30'1 1.4
2018-Jul-13 12:30N 32°48' W 117°30'2 3.5
2018-Jul-13 12:00N 32°46' W 117°29'2 3.3
2018-Jul-13 11:30N 32°45' W 117°28'3 5.5
2018-Jul-13 11:00N 32°44' W 117°25'3 5.8
2018-Jul-13 10:30N 32°42' W 117°22'3 6.3
2018-Jul-13 10:00N 32°41' W 117°19'4 7.6
2018-Jul-13 09:30N 32°39' W 117°15'3 6.1
2018-Jul-13 09:00N 32°42' W 117°14'3 5.9
2018-Jul-13 08:29N 32°43' W 117°10'0 0.0
2018-Jul-13 00:21N 32°43' W 117°10'0 0.2
2018-Jul-12 23:58N 32°43' W 117°10'3 5.5
2018-Jul-12 23:28N 32°42' W 117°14'3 7.3
2018-Jul-12 23:00N 32°39' W 117°14'4 7.2
2018-Jul-12 22:30N 32°39' W 117°18'4 7.1
2018-Jul-12 22:00N 32°38' W 117°22'2 3.9
2018-Jul-12 21:30N 32°39' W 117°24'1 1.8
2018-Jul-12 21:00N 32°39' W 117°24'1 2.9
2018-Jul-12 20:30N 32°38' W 117°24'1 2.8
2018-Jul-12 20:00N 32°37' W 117°24'1 2.1
2018-Jul-12 19:30N 32°38' W 117°25'4 8.0
2018-Jul-12 19:00N 32°40' W 117°29'4 7.8
2018-Jul-12 18:30N 32°41' W 117°33'4 8.1
2018-Jul-12 18:00N 32°42' W 117°38'4 8.0
2018-Jul-12 17:30N 32°42' W 117°42'4 8.0
2018-Jul-12 17:00N 32°42' W 117°47'0 1.0
2018-Jul-12 16:30N 32°42' W 117°48'1 2.8
2018-Jul-12 16:00N 32°43' W 117°49'3 5.8
2018-Jul-12 15:30N 32°44' W 117°52'4 7.5
2018-Jul-12 15:00N 32°45' W 117°56'4 7.1
2018-Jul-12 14:30N 32°46' W 118°00'1 2.5
2018-Jul-12 13:58N 32°46' W 118°02'1 1.5
2018-Jul-12 13:30N 32°46' W 118°01'1 2.7
2018-Jul-12 13:00N 32°45' W 118°00'1 2.3
2018-Jul-12 12:30N 32°46' W 118°01'1 2.5
2018-Jul-12 12:00N 32°47' W 118°00'0 0.7
2018-Jul-12 11:30N 32°47' W 117°60'0 0.2
2018-Jul-12 11:00N 32°47' W 117°60'0 0.3
2018-Jul-12 10:30N 32°47' W 117°60'0 0.3
2018-Jul-12 10:00N 32°47' W 118°00'0 0.3
2018-Jul-12 09:30N 32°47' W 118°00'0 0.3
2018-Jul-12 09:00N 32°47' W 118°00'1 1.7
2018-Jul-12 08:30N 32°46' W 117°60'4 7.5
2018-Jul-12 08:00N 32°45' W 117°55'4 7.6
2018-Jul-12 07:30N 32°43' W 117°51'4 7.2
2018-Jul-12 07:00N 32°42' W 117°47'1 2.6
2018-Jul-12 06:30N 32°41' W 117°49'1 2.3
2018-Jul-12 06:00N 32°41' W 117°48'2 3.4
2018-Jul-12 05:30N 32°40' W 117°49'4 7.3
2018-Jul-12 05:00N 32°38' W 117°53'4 7.5
2018-Jul-12 04:30N 32°36' W 117°56'4 7.9
2018-Jul-12 04:00N 32°33' W 118°00'4 7.7
2018-Jul-12 03:30N 32°31' W 118°04'4 7.2
2018-Jul-12 03:00N 32°28' W 118°07'4 7.4
2018-Jul-12 02:29N 32°25' W 118°08'9 7.4
2018-Jul-12 01:14N 32°16' W 118°13'0 1.9
2018-Jul-12 01:00N 32°16' W 118°13'0 0.7
2018-Jul-12 00:30N 32°16' W 118°14'1 2.4
2018-Jul-12 00:00N 32°17' W 118°14'1 2.0
2018-Jul-11 23:30N 32°16' W 118°14'2 3.5
2018-Jul-11 23:00N 32°18' W 118°14'1 1.5
2018-Jul-11 22:29N 32°18' W 118°13'3 5.4
2018-Jul-11 22:00N 32°19' W 118°16'4 7.9
2018-Jul-11 21:30N 32°21' W 118°20'4 8.0
2018-Jul-11 21:00N 32°23' W 118°25'4 7.6
2018-Jul-11 20:30N 32°24' W 118°29'2 4.1
2018-Jul-11 19:59N 32°25' W 118°31'0 0.8
2018-Jul-11 19:30N 32°25' W 118°32'1 1.8
2018-Jul-11 19:00N 32°26' W 118°32'1 1.0
2018-Jul-11 18:30N 32°27' W 118°32'2 3.9
2018-Jul-11 18:00N 32°26' W 118°34'1 2.1
2018-Jul-11 17:29N 32°26' W 118°35'1 1.8
2018-Jul-11 16:59N 32°26' W 118°35'2 3.1
2018-Jul-11 16:30N 32°25' W 118°35'3 5.7
2018-Jul-11 16:00N 32°28' W 118°35'4 7.3
2018-Jul-11 15:30N 32°30' W 118°38'4 7.3
2018-Jul-11 15:00N 32°33' W 118°41'4 7.1
2018-Jul-11 14:30N 32°36' W 118°43'4 7.5
2018-Jul-11 14:00N 32°40' W 118°43'4 7.5
2018-Jul-11 13:30N 32°44' W 118°43'4 7.6
2018-Jul-11 13:00N 32°48' W 118°43'2 3.2
2018-Jul-11 12:24N 32°49' W 118°44'1 2.2
2018-Jul-11 11:56N 32°49' W 118°45'2 5.0
2018-Jul-11 11:30N 32°48' W 118°47'4 7.7
2018-Jul-11 10:59N 32°46' W 118°51'4 7.5
2018-Jul-11 10:30N 32°45' W 118°55'4 7.9
2018-Jul-11 10:00N 32°44' W 118°60'4 8.3
2018-Jul-11 09:30N 32°42' W 119°05'4 8.3
2018-Jul-11 09:00N 32°41' W 119°09'4 8.4
2018-Jul-11 08:30N 32°39' W 119°14'4 7.9
2018-Jul-11 08:00N 32°38' W 119°18'4 6.9
2018-Jul-11 07:30N 32°36' W 119°22'4 7.2
2018-Jul-11 07:00N 32°34' W 119°25'4 7.2
2018-Jul-11 06:30N 32°33' W 119°29'4 7.2
2018-Jul-11 06:00N 32°32' W 119°33'3 5.9
2018-Jul-11 05:30N 32°31' W 119°37'1 2.7
2018-Jul-11 05:00N 32°30' W 119°38'1 2.2
2018-Jul-11 04:27N 32°30' W 119°40'1 1.4
2018-Jul-11 04:00N 32°30' W 119°40'1 2.5
2018-Jul-11 03:30N 32°30' W 119°42'1 1.4
2018-Jul-11 03:00N 32°31' W 119°42'1 1.6
2018-Jul-11 02:12N 32°32' W 119°43'1 1.9
2018-Jul-11 01:52N 32°32' W 119°44'1 2.1
2018-Jul-11 01:27N 32°33' W 119°44'4 5.6
2018-Jul-11 00:49N 32°34' W 119°48'2 5.7
2018-Jul-11 00:30N 32°34' W 119°50'0 0.5
2018-Jul-11 00:00N 32°35' W 119°51'1 1.7
2018-Jul-10 23:30N 32°35' W 119°51'19 7.5
2018-Jul-10 20:54N 32°51' W 120°05'3 8.2
2018-Jul-10 20:30N 32°54' W 120°07'7 8.1
2018-Jul-10 19:37N 32°60' W 120°12'1 8.1
2018-Jul-10 19:30N 33°00' W 120°12'4 7.9
2018-Jul-10 19:00N 33°04' W 120°15'4 7.5
2018-Jul-10 18:30N 33°07' W 120°18'3 6.6
2018-Jul-10 18:00N 33°09' W 120°20'1 1.0
2018-Jul-10 17:31N 33°09' W 120°21'1 2.1
2018-Jul-10 16:59N 33°10' W 120°22'2 3.4
2018-Jul-10 16:30N 33°09' W 120°20'4 7.6
2018-Jul-10 16:00N 33°06' W 120°17'3 4.5
2018-Jul-10 15:24N 33°04' W 120°14'0 0.7
2018-Jul-10 15:00N 33°04' W 120°14'2 3.0
2018-Jul-10 14:30N 33°06' W 120°14'1 1.3
2018-Jul-10 14:00N 33°07' W 120°14'1 1.4
2018-Jul-10 13:30N 33°07' W 120°15'1 2.7
2018-Jul-10 13:00N 33°08' W 120°16'1 2.0
2018-Jul-10 12:30N 33°07' W 120°16'2 3.7
2018-Jul-10 12:00N 33°08' W 120°17'2 4.3
2018-Jul-10 11:30N 33°10' W 120°18'2 4.3
2018-Jul-10 11:00N 33°13' W 120°18'2 4.3
2018-Jul-10 10:30N 33°15' W 120°18'2 4.4
2018-Jul-10 10:00N 33°17' W 120°18'2 5.0
2018-Jul-10 09:30N 33°19' W 120°18'3 5.2
2018-Jul-10 09:00N 33°22' W 120°18'3 5.3
2018-Jul-10 08:30N 33°25' W 120°19'2 4.7
2018-Jul-10 08:00N 33°27' W 120°19'2 3.8
2018-Jul-10 07:31N 33°29' W 120°19'2 4.1
2018-Jul-10 07:00N 33°31' W 120°19'2 4.3
2018-Jul-10 06:30N 33°33' W 120°19'2 4.1
2018-Jul-10 06:00N 33°35' W 120°19'2 4.0
2018-Jul-10 05:30N 33°37' W 120°19'2 4.0
2018-Jul-10 05:00N 33°39' W 120°19'2 3.8
2018-Jul-10 04:30N 33°41' W 120°19'2 4.9
2018-Jul-10 03:59N 33°44' W 120°19'2 5.0
2018-Jul-10 03:30N 33°46' W 120°19'2 4.7
2018-Jul-10 03:00N 33°48' W 120°18'2 4.4
2018-Jul-10 02:30N 33°50' W 120°18'1 1.4
2018-Jul-10 02:00N 33°51' W 120°18'1 2.0
2018-Jul-10 01:29N 33°52' W 120°19'1 1.3
2018-Jul-10 00:59N 33°52' W 120°18'3 6.6
2018-Jul-10 00:30N 33°50' W 120°15'4 7.3
2018-Jul-10 00:00N 33°49' W 120°11'4 7.0
2018-Jul-09 23:29N 33°47' W 120°07'3 6.8
2018-Jul-09 23:00N 33°45' W 120°04'1 0.9
2018-Jul-09 22:18N 33°45' W 120°03'1 3.7
2018-Jul-09 21:59N 33°46' W 120°03'3 5.2
2018-Jul-09 21:30N 33°44' W 120°03'0 0.3
2018-Jul-09 21:00N 33°44' W 120°03'4 7.2
2018-Jul-09 20:30N 33°46' W 119°59'4 7.4
2018-Jul-09 20:00N 33°48' W 119°56'4 7.6
2018-Jul-09 19:30N 33°50' W 119°52'1 1.3
2018-Jul-09 19:00N 33°50' W 119°51'1 1.9
2018-Jul-09 18:30N 33°51' W 119°52'0 0.6
2018-Jul-09 18:00N 33°51' W 119°52'1 1.6
2018-Jul-09 17:30N 33°51' W 119°53'2 3.6
2018-Jul-09 17:00N 33°52' W 119°52'4 7.0
2018-Jul-09 16:29N 33°53' W 119°47'3 5.8
2018-Jul-09 16:00N 33°54' W 119°44'2 4.4
2018-Jul-09 15:30N 33°54' W 119°42'1 1.5
2018-Jul-09 15:00N 33°54' W 119°41'1 1.5
2018-Jul-09 14:30N 33°55' W 119°40'1 1.8
2018-Jul-09 14:00N 33°55' W 119°39'1 1.1
2018-Jul-09 13:30N 33°55' W 119°40'3 6.0
2018-Jul-09 13:00N 33°55' W 119°43'1 1.8
2018-Jul-09 12:30N 33°55' W 119°43'1 1.7
2018-Jul-09 12:00N 33°55' W 119°44'2 4.2
2018-Jul-09 11:30N 33°56' W 119°47'3 6.0
2018-Jul-09 11:00N 33°57' W 119°50'4 8.5
2018-Jul-09 10:30N 33°59' W 119°54'4 7.9
2018-Jul-09 10:00N 34°03' W 119°56'4 7.5
2018-Jul-09 09:28N 34°07' W 119°55'4 7.5
2018-Jul-09 09:00N 34°10' W 119°53'4 7.7
2018-Jul-09 08:28N 34°13' W 119°50'4 8.1
2018-Jul-09 08:00N 34°16' W 119°47'4 8.2
2018-Jul-09 07:30N 34°19' W 119°44'4 8.1
2018-Jul-09 07:00N 34°23' W 119°41'2 3.5
2018-Jul-09 06:30N 34°24' W 119°41'0 0.0
2018-Jul-09 06:01N 34°24' W 119°41'0 0.0
2018-Jul-09 05:30N 34°24' W 119°41'0 0.0
2018-Jul-09 05:00N 34°24' W 119°41'0 0.0
2018-Jul-09 04:29N 34°24' W 119°41'0 0.0
2018-Jul-09 04:00N 34°24' W 119°41'0 0.0
2018-Jul-09 03:30N 34°24' W 119°41'0 0.0
2018-Jul-09 03:01N 34°24' W 119°41'  
Track history (hours):
 
Tides and Currents Weather Stations Pressure Air Temp Water Temp Dewpoint Dewpoint Depression Visibility Wind Speed Wind Dir Waves Ship Positions

Last Straw

Owner: HEARNE, BRETT, NEWPORT, OR. More information available from US FCC via Universal Licensing System and Coast Guard Vessel Documentation Center.

Last reported at 2018-Jul-19 03:00 UTC. Time now 2018-Jul-20 06:44 UTC.
Position N 38°50' W 123°40'.

Length 41 m; draft 6 m.

Type: Fishing. MMSI: 366245070.

Date/timePositionNaut miles runAvg speedWind from/ knotsBaromVisibWave heightAir tempDewpointWater temp
2018-Jul-19 03:00N 38°50' W 123°40'4 7.5
2018-Jul-19 02:28N 38°47' W 123°36'16 7.7
2018-Jul-19 00:21N 38°35' W 123°22'3 8.1
2018-Jul-19 00:00N 38°33' W 123°20'4 8.1
2018-Jul-18 23:30N 38°30' W 123°16'4 8.1
2018-Jul-18 23:00N 38°27' W 123°12'4 8.0
2018-Jul-18 22:30N 38°25' W 123°09'4 8.1
2018-Jul-18 22:00N 38°21' W 123°06'4 8.4
2018-Jul-18 21:30N 38°17' W 123°05'4 8.1
2018-Jul-18 21:00N 38°13' W 123°04'4 8.1
2018-Jul-18 20:30N 38°09' W 123°03'4 7.9
2018-Jul-18 20:00N 38°05' W 123°03'4 7.6
2018-Jul-18 19:30N 38°01' W 123°02'4 7.7
2018-Jul-18 19:00N 37°58' W 123°00'4 7.7
2018-Jul-18 18:30N 37°55' W 122°57'4 7.4
2018-Jul-18 18:00N 37°52' W 122°54'4 7.2
2018-Jul-18 17:29N 37°48' W 122°53'4 7.5
2018-Jul-18 17:00N 37°45' W 122°51'4 7.6
2018-Jul-18 16:28N 37°42' W 122°48'3 7.3
2018-Jul-18 16:00N 37°39' W 122°46'4 7.4
2018-Jul-18 15:28N 37°35' W 122°44'4 7.6
2018-Jul-18 15:00N 37°33' W 122°41'4 7.8
2018-Jul-18 14:27N 37°29' W 122°38'8 8.0
2018-Jul-18 13:30N 37°22' W 122°33'4 7.9
2018-Jul-18 12:57N 37°18' W 122°31'4 8.1
2018-Jul-18 12:30N 37°15' W 122°29'4 8.0
2018-Jul-18 12:00N 37°12' W 122°26'4 7.9
2018-Jul-18 11:30N 37°08' W 122°24'8 8.0
2018-Jul-18 10:30N 37°02' W 122°17'4 8.2
2018-Jul-18 10:00N 36°59' W 122°14'4 7.9
2018-Jul-18 09:30N 36°56' W 122°11'4 7.9
2018-Jul-18 09:00N 36°53' W 122°08'4 8.1
2018-Jul-18 08:30N 36°50' W 122°05'4 7.7
2018-Jul-18 08:00N 36°47' W 122°02'4 7.7
2018-Jul-18 07:30N 36°43' W 122°00'4 7.6
2018-Jul-18 07:00N 36°39' W 121°60'4 7.7
2018-Jul-18 06:30N 36°35' W 121°59'4 7.5
2018-Jul-18 06:00N 36°32' W 121°58'4 7.4
2018-Jul-18 05:30N 36°28' W 121°57'4 7.5
2018-Jul-18 05:00N 36°25' W 121°56'4 7.4
2018-Jul-18 04:30N 36°21' W 121°55'4 7.1
2018-Jul-18 04:00N 36°17' W 121°54'4 7.6
2018-Jul-18 03:30N 36°15' W 121°51'4 7.9
2018-Jul-18 03:00N 36°13' W 121°47'4 8.3
2018-Jul-18 02:30N 36°10' W 121°42'4 8.0
2018-Jul-18 02:00N 36°07' W 121°39'4 8.1
2018-Jul-18 01:30N 36°04' W 121°37'7 7.3
2018-Jul-18 00:29N 35°58' W 121°31'4 7.5
2018-Jul-17 23:58N 35°55' W 121°30'4 7.5
2018-Jul-17 23:29N 35°52' W 121°27'4 7.6
2018-Jul-17 22:56N 35°48' W 121°24'4 7.7
2018-Jul-17 22:27N 35°45' W 121°22'4 7.6
2018-Jul-17 21:53N 35°41' W 121°19'5 7.2
2018-Jul-17 21:09N 35°37' W 121°15'1 6.9
2018-Jul-17 21:00N 35°36' W 121°15'4 7.1
2018-Jul-17 20:23N 35°32' W 121°12'3 7.3
2018-Jul-17 20:00N 35°30' W 121°10'4 7.8
2018-Jul-17 19:30N 35°27' W 121°07'4 7.9
2018-Jul-17 18:59N 35°23' W 121°05'4 7.6
2018-Jul-17 18:29N 35°20' W 121°03'4 7.6
2018-Jul-17 17:58N 35°16' W 121°00'5 7.6
2018-Jul-17 17:18N 35°12' W 120°57'2 7.7
2018-Jul-17 17:00N 35°10' W 120°55'4 7.7
2018-Jul-17 16:30N 35°07' W 120°53'9 7.6
2018-Jul-17 15:19N 34°59' W 120°48'2 7.9
2018-Jul-17 15:00N 34°57' W 120°47'4 7.7
2018-Jul-17 14:30N 34°53' W 120°46'4 7.7
2018-Jul-17 14:00N 34°49' W 120°45'4 7.8
2018-Jul-17 13:30N 34°45' W 120°44'4 7.9
2018-Jul-17 13:00N 34°42' W 120°42'4 7.8
2018-Jul-17 12:29N 34°38' W 120°41'4 7.7
2018-Jul-17 12:00N 34°34' W 120°40'4 7.6
2018-Jul-17 11:30N 34°32' W 120°36'4 7.6
2018-Jul-17 11:00N 34°30' W 120°32'4 7.3
2018-Jul-17 10:30N 34°27' W 120°29'4 7.9
2018-Jul-17 10:00N 34°25' W 120°25'4 8.7
2018-Jul-17 09:29N 34°25' W 120°20'4 8.9
2018-Jul-17 08:59N 34°25' W 120°14'4 8.8
2018-Jul-17 08:29N 34°25' W 120°09'4 8.5
2018-Jul-17 07:58N 34°24' W 120°04'4 8.6
2018-Jul-17 07:28N 34°23' W 119°59'4 8.4
2018-Jul-17 07:00N 34°22' W 119°54'4 8.4
2018-Jul-17 06:30N 34°21' W 119°49'4 7.9
2018-Jul-17 05:58N 34°20' W 119°44'4 7.5
2018-Jul-17 05:30N 34°19' W 119°40'4 7.4
2018-Jul-17 04:59N 34°17' W 119°36'3 7.2
2018-Jul-17 04:30N 34°15' W 119°33'3 6.9
2018-Jul-17 04:00N 34°12' W 119°31'3 6.7
2018-Jul-17 03:30N 34°10' W 119°28'3 6.7
2018-Jul-17 03:00N 34°08' W 119°24'3 6.8
2018-Jul-17 02:30N 34°07' W 119°20'4 7.4
2018-Jul-17 02:00N 34°06' W 119°16'4 6.9
2018-Jul-17 01:29N 34°05' W 119°12'3 7.0
2018-Jul-17 01:00N 34°03' W 119°08'4 7.7
2018-Jul-17 00:29N 34°02' W 119°04'7 7.5
2018-Jul-16 23:30N 33°59' W 118°55'4 7.6
2018-Jul-16 23:00N 33°58' W 118°51'4 7.4
2018-Jul-16 22:30N 33°56' W 118°47'4 7.5
2018-Jul-16 22:00N 33°55' W 118°43'4 7.9
2018-Jul-16 21:29N 33°53' W 118°38'11 7.5
2018-Jul-16 20:03N 33°47' W 118°28'0 7.6
2018-Jul-16 20:00N 33°47' W 118°27'4 7.8
2018-Jul-16 19:30N 33°44' W 118°24'4 7.7
2018-Jul-16 19:00N 33°43' W 118°20'4 7.5
2018-Jul-16 18:30N 33°42' W 118°16'4 8.0
2018-Jul-16 18:00N 33°43' W 118°11'2 4.8
2018-Jul-16 17:30N 33°46' W 118°12'2 4.4
2018-Jul-16 17:00N 33°44' W 118°11'4 8.3
2018-Jul-16 16:30N 33°40' W 118°08'4 8.0
2018-Jul-16 16:00N 33°37' W 118°05'4 7.8
2018-Jul-16 15:30N 33°36' W 118°01'4 7.1
2018-Jul-16 15:00N 33°34' W 117°57'1 2.0
2018-Jul-16 14:30N 33°34' W 117°56'2 3.3
2018-Jul-16 14:00N 33°34' W 117°54'1 2.6
2018-Jul-16 13:30N 33°34' W 117°52'1 2.2
2018-Jul-16 13:00N 33°34' W 117°51'0 0.2
2018-Jul-16 12:30N 33°34' W 117°51'2 3.6
2018-Jul-16 12:00N 33°34' W 117°53'4 8.3
2018-Jul-16 11:30N 33°33' W 117°58'4 8.2
2018-Jul-16 11:00N 33°32' W 118°03'4 7.9
2018-Jul-16 10:30N 33°32' W 118°08'4 7.7
2018-Jul-16 09:59N 33°31' W 118°12'4 7.7
2018-Jul-16 09:30N 33°30' W 118°17'3 6.8
2018-Jul-16 09:00N 33°29' W 118°21'4 6.7
2018-Jul-16 08:24N 33°28' W 118°25'3 7.1
2018-Jul-16 08:00N 33°27' W 118°29'1 0.2
2018-Jul-16 02:00N 33°27' W 118°30'0 0.0
2018-Jul-16 01:17N 33°27' W 118°30'0 0.1
2018-Jul-16 00:56N 33°27' W 118°30'0 0.0
2018-Jul-15 23:51N 33°27' W 118°30'0 0.0
2018-Jul-15 23:30N 33°27' W 118°30'1 2.2
2018-Jul-15 23:00N 33°28' W 118°30'2 4.2
2018-Jul-15 22:30N 33°30' W 118°31'2 3.4
2018-Jul-15 21:59N 33°31' W 118°32'1 2.0
2018-Jul-15 21:30N 33°31' W 118°34'0 0.7
2018-Jul-15 20:58N 33°31' W 118°34'1 2.0
2018-Jul-15 20:17N 33°31' W 118°32'2 7.2
2018-Jul-15 20:00N 33°31' W 118°35'6 6.9
2018-Jul-15 19:08N 33°25' W 118°34'3 8.3
2018-Jul-15 18:50N 33°23' W 118°32'2 5.8
2018-Jul-15 18:29N 33°21' W 118°30'1 2.0
2018-Jul-15 17:59N 33°22' W 118°30'2 4.9
2018-Jul-15 17:30N 33°20' W 118°30'4 7.7
2018-Jul-15 17:00N 33°16' W 118°28'4 7.8
2018-Jul-15 16:30N 33°13' W 118°26'2 4.4
2018-Jul-15 15:57N 33°11' W 118°25'0 0.5
2018-Jul-15 15:30N 33°11' W 118°25'1 1.5
2018-Jul-15 15:00N 33°11' W 118°25'1 2.5
2018-Jul-15 14:30N 33°12' W 118°24'3 5.8
2018-Jul-15 14:00N 33°15' W 118°23'4 6.5
2018-Jul-15 13:27N 33°18' W 118°20'3 6.0
2018-Jul-15 13:00N 33°20' W 118°18'2 3.6
2018-Jul-15 12:30N 33°21' W 118°19'0 0.0
2018-Jul-15 12:00N 33°21' W 118°19'0 0.0
2018-Jul-15 11:30N 33°21' W 118°19'0 0.1
2018-Jul-15 11:00N 33°21' W 118°19'0 0.1
2018-Jul-15 10:30N 33°21' W 118°19'0 0.0
2018-Jul-15 10:00N 33°21' W 118°19'0 0.0
2018-Jul-15 09:30N 33°21' W 118°19'0 0.0
2018-Jul-15 09:00N 33°21' W 118°19'0 0.0
2018-Jul-15 08:30N 33°21' W 118°19'0 0.1
2018-Jul-15 08:00N 33°21' W 118°19'0 0.0
2018-Jul-15 07:30N 33°21' W 118°19'0 0.0
2018-Jul-15 07:00N 33°21' W 118°19'0 0.0
2018-Jul-15 06:30N 33°21' W 118°19'0 0.0
2018-Jul-15 06:00N 33°21' W 118°19'0 0.0
2018-Jul-15 05:30N 33°21' W 118°19'0 0.0
2018-Jul-15 05:00N 33°21' W 118°19'0 0.1
2018-Jul-15 04:30N 33°21' W 118°19'0 0.0
2018-Jul-15 04:00N 33°21' W 118°19'0 0.0
2018-Jul-15 03:30N 33°21' W 118°19'0 0.0
2018-Jul-15 03:00N 33°21' W 118°19'0 0.0
2018-Jul-15 02:30N 33°21' W 118°19'0 0.0
2018-Jul-15 02:00N 33°21' W 118°19'0 0.0
2018-Jul-15 01:30N 33°21' W 118°19'0 0.0
2018-Jul-15 01:00N 33°21' W 118°19'0 0.0
2018-Jul-15 00:30N 33°21' W 118°19'0 0.0
2018-Jul-15 00:00N 33°21' W 118°19'0 0.0
2018-Jul-14 23:30N 33°21' W 118°19'0 0.0
2018-Jul-14 23:00N 33°21' W 118°19'0 0.0
2018-Jul-14 22:30N 33°21' W 118°19'0 0.0
2018-Jul-14 22:00N 33°21' W 118°19'0 0.0
2018-Jul-14 21:30N 33°21' W 118°19'0 0.0
2018-Jul-14 21:00N 33°21' W 118°19'0 0.1
2018-Jul-14 20:30N 33°21' W 118°19'0 0.0
2018-Jul-14 20:00N 33°21' W 118°19'0 0.0
2018-Jul-14 19:29N 33°21' W 118°19'0 0.0
2018-Jul-14 19:00N 33°21' W 118°19'0 0.0
2018-Jul-14 18:30N 33°21' W 118°19'0 0.0
2018-Jul-14 18:00N 33°21' W 118°19'0 0.0
2018-Jul-14 17:30N 33°21' W 118°19'0 0.0
2018-Jul-14 17:00N 33°21' W 118°19'0 0.0
2018-Jul-14 16:30N 33°21' W 118°19'4 7.0
2018-Jul-14 16:00N 33°23' W 118°16'4 7.5
2018-Jul-14 15:30N 33°25' W 118°12'4 7.8
2018-Jul-14 15:00N 33°26' W 118°07'7 7.4
2018-Jul-14 14:00N 33°29' W 117°59'1 1.1
2018-Jul-14 13:28N 33°29' W 118°00'2 2.9
2018-Jul-14 12:55N 33°29' W 118°02'1 1.9
2018-Jul-14 12:30N 33°29' W 118°01'1 1.7
2018-Jul-14 12:00N 33°29' W 118°00'2 4.1
2018-Jul-14 11:30N 33°29' W 117°58'3 5.0
2018-Jul-14 11:00N 33°28' W 117°55'2 3.1
2018-Jul-14 10:30N 33°28' W 117°53'0 0.3
2018-Jul-14 10:00N 33°28' W 117°53'0 0.2
2018-Jul-14 09:30N 33°28' W 117°53'1 1.7
2018-Jul-14 09:00N 33°28' W 117°53'2 3.5
2018-Jul-14 08:30N 33°26' W 117°51'2 4.7
2018-Jul-14 08:00N 33°25' W 117°49'2 4.9
2018-Jul-14 07:30N 33°23' W 117°47'3 5.4
2018-Jul-14 07:00N 33°21' W 117°45'3 5.7
2018-Jul-14 06:30N 33°19' W 117°42'3 5.7
2018-Jul-14 06:00N 33°17' W 117°40'3 5.7
2018-Jul-14 05:30N 33°15' W 117°37'3 5.5
2018-Jul-14 05:00N 33°14' W 117°34'3 5.6
2018-Jul-14 04:30N 33°12' W 117°31'3 5.6
2018-Jul-14 04:00N 33°11' W 117°28'1 1.2
2018-Jul-14 03:30N 33°11' W 117°28'2 3.5
2018-Jul-14 03:00N 33°10' W 117°26'1 3.0
2018-Jul-14 02:30N 33°10' W 117°24'1 2.2
2018-Jul-14 02:00N 33°09' W 117°23'1 2.0
2018-Jul-14 01:30N 33°08' W 117°24'3 6.0
2018-Jul-14 01:00N 33°05' W 117°24'1 1.3
2018-Jul-14 00:30N 33°05' W 117°24'1 2.5
2018-Jul-14 00:00N 33°04' W 117°23'0 0.4
2018-Jul-13 23:30N 33°04' W 117°23'1 1.1
2018-Jul-13 23:00N 33°03' W 117°23'1 1.9
2018-Jul-13 22:30N 33°03' W 117°22'1 2.1
2018-Jul-13 22:00N 33°02' W 117°22'0 0.6
2018-Jul-13 21:30N 33°02' W 117°22'0 0.8
2018-Jul-13 21:00N 33°01' W 117°22'1 2.7
2018-Jul-13 20:30N 33°00' W 117°21'0 0.4
2018-Jul-13 20:00N 33°00' W 117°21'2 4.2
2018-Jul-13 19:30N 33°02' W 117°23'1 1.2
2018-Jul-13 19:00N 33°01' W 117°23'2 3.2
2018-Jul-13 18:30N 32°60' W 117°22'4 7.2
2018-Jul-13 18:00N 32°60' W 117°26'4 7.5
2018-Jul-13 17:30N 32°60' W 117°31'3 5.2
2018-Jul-13 17:00N 32°59' W 117°34'0 0.7
2018-Jul-13 16:30N 32°59' W 117°34'1 2.1
2018-Jul-13 16:00N 32°58' W 117°34'3 5.8
2018-Jul-13 15:30N 32°55' W 117°33'4 7.7
2018-Jul-13 15:00N 32°51' W 117°31'5 5.4
2018-Jul-13 14:00N 32°46' W 117°29'0 0.9
2018-Jul-13 13:30N 32°47' W 117°29'1 2.2
2018-Jul-13 13:00N 32°48' W 117°30'1 1.4
2018-Jul-13 12:30N 32°48' W 117°30'2 3.5
2018-Jul-13 12:00N 32°46' W 117°29'2 3.3
2018-Jul-13 11:30N 32°45' W 117°28'3 5.5
2018-Jul-13 11:00N 32°44' W 117°25'3 5.8
2018-Jul-13 10:30N 32°42' W 117°22'3 6.3
2018-Jul-13 10:00N 32°41' W 117°19'4 7.6
2018-Jul-13 09:30N 32°39' W 117°15'3 6.1
2018-Jul-13 09:00N 32°42' W 117°14'3 5.9
2018-Jul-13 08:29N 32°43' W 117°10'0 0.0
2018-Jul-13 00:21N 32°43' W 117°10'0 0.2
2018-Jul-12 23:58N 32°43' W 117°10'3 5.5
2018-Jul-12 23:28N 32°42' W 117°14'3 7.3
2018-Jul-12 23:00N 32°39' W 117°14'4 7.2
2018-Jul-12 22:30N 32°39' W 117°18'4 7.1
2018-Jul-12 22:00N 32°38' W 117°22'2 3.9
2018-Jul-12 21:30N 32°39' W 117°24'1 1.8
2018-Jul-12 21:00N 32°39' W 117°24'1 2.9
2018-Jul-12 20:30N 32°38' W 117°24'1 2.8
2018-Jul-12 20:00N 32°37' W 117°24'1 2.1
2018-Jul-12 19:30N 32°38' W 117°25'4 8.0
2018-Jul-12 19:00N 32°40' W 117°29'4 7.8
2018-Jul-12 18:30N 32°41' W 117°33'4 8.1
2018-Jul-12 18:00N 32°42' W 117°38'4 8.0
2018-Jul-12 17:30N 32°42' W 117°42'4 8.0
2018-Jul-12 17:00N 32°42' W 117°47'0 1.0
2018-Jul-12 16:30N 32°42' W 117°48'1 2.8
2018-Jul-12 16:00N 32°43' W 117°49'3 5.8
2018-Jul-12 15:30N 32°44' W 117°52'4 7.5
2018-Jul-12 15:00N 32°45' W 117°56'4 7.1
2018-Jul-12 14:30N 32°46' W 118°00'1 2.5
2018-Jul-12 13:58N 32°46' W 118°02'1 1.5
2018-Jul-12 13:30N 32°46' W 118°01'1 2.7
2018-Jul-12 13:00N 32°45' W 118°00'1 2.3
2018-Jul-12 12:30N 32°46' W 118°01'1 2.5
2018-Jul-12 12:00N 32°47' W 118°00'0 0.7
2018-Jul-12 11:30N 32°47' W 117°60'0 0.2
2018-Jul-12 11:00N 32°47' W 117°60'0 0.3
2018-Jul-12 10:30N 32°47' W 117°60'0 0.3
2018-Jul-12 10:00N 32°47' W 118°00'0 0.3
2018-Jul-12 09:30N 32°47' W 118°00'0 0.3
2018-Jul-12 09:00N 32°47' W 118°00'1 1.7
2018-Jul-12 08:30N 32°46' W 117°60'4 7.5
2018-Jul-12 08:00N 32°45' W 117°55'4 7.6
2018-Jul-12 07:30N 32°43' W 117°51'4 7.2
2018-Jul-12 07:00N 32°42' W 117°47'1 2.6
2018-Jul-12 06:30N 32°41' W 117°49'1 2.3
2018-Jul-12 06:00N 32°41' W 117°48'2 3.4
2018-Jul-12 05:30N 32°40' W 117°49'4 7.3
2018-Jul-12 05:00N 32°38' W 117°53'4 7.5
2018-Jul-12 04:30N 32°36' W 117°56'4 7.9
2018-Jul-12 04:00N 32°33' W 118°00'4 7.7
2018-Jul-12 03:30N 32°31' W 118°04'4 7.2
2018-Jul-12 03:00N 32°28' W 118°07'4 7.4
2018-Jul-12 02:29N 32°25' W 118°08'9 7.4
2018-Jul-12 01:14N 32°16' W 118°13'0 1.9
2018-Jul-12 01:00N 32°16' W 118°13'0 0.7
2018-Jul-12 00:30N 32°16' W 118°14'1 2.4
2018-Jul-12 00:00N 32°17' W 118°14'1 2.0
2018-Jul-11 23:30N 32°16' W 118°14'2 3.5
2018-Jul-11 23:00N 32°18' W 118°14'1 1.5
2018-Jul-11 22:29N 32°18' W 118°13'3 5.4
2018-Jul-11 22:00N 32°19' W 118°16'4 7.9
2018-Jul-11 21:30N 32°21' W 118°20'4 8.0
2018-Jul-11 21:00N 32°23' W 118°25'4 7.6
2018-Jul-11 20:30N 32°24' W 118°29'2 4.1
2018-Jul-11 19:59N 32°25' W 118°31'0 0.8
2018-Jul-11 19:30N 32°25' W 118°32'1 1.8
2018-Jul-11 19:00N 32°26' W 118°32'1 1.0
2018-Jul-11 18:30N 32°27' W 118°32'2 3.9
2018-Jul-11 18:00N 32°26' W 118°34'1 2.1
2018-Jul-11 17:29N 32°26' W 118°35'1 1.8
2018-Jul-11 16:59N 32°26' W 118°35'2 3.1
2018-Jul-11 16:30N 32°25' W 118°35'3 5.7
2018-Jul-11 16:00N 32°28' W 118°35'4 7.3
2018-Jul-11 15:30N 32°30' W 118°38'4 7.3
2018-Jul-11 15:00N 32°33' W 118°41'4 7.1
2018-Jul-11 14:30N 32°36' W 118°43'4 7.5
2018-Jul-11 14:00N 32°40' W 118°43'4 7.5
2018-Jul-11 13:30N 32°44' W 118°43'4 7.6
2018-Jul-11 13:00N 32°48' W 118°43'2 3.2
2018-Jul-11 12:24N 32°49' W 118°44'1 2.2
2018-Jul-11 11:56N 32°49' W 118°45'2 5.0
2018-Jul-11 11:30N 32°48' W 118°47'4 7.7
2018-Jul-11 10:59N 32°46' W 118°51'4 7.5
2018-Jul-11 10:30N 32°45' W 118°55'4 7.9
2018-Jul-11 10:00N 32°44' W 118°60'4 8.3
2018-Jul-11 09:30N 32°42' W 119°05'4 8.3
2018-Jul-11 09:00N 32°41' W 119°09'4 8.4
2018-Jul-11 08:30N 32°39' W 119°14'4 7.9
2018-Jul-11 08:00N 32°38' W 119°18'4 6.9
2018-Jul-11 07:30N 32°36' W 119°22'4 7.2
2018-Jul-11 07:00N 32°34' W 119°25'4 7.2
2018-Jul-11 06:30N 32°33' W 119°29'4 7.2
2018-Jul-11 06:00N 32°32' W 119°33'3 5.9
2018-Jul-11 05:30N 32°31' W 119°37'1 2.7
2018-Jul-11 05:00N 32°30' W 119°38'1 2.2
2018-Jul-11 04:27N 32°30' W 119°40'1 1.4
2018-Jul-11 04:00N 32°30' W 119°40'1 2.5
2018-Jul-11 03:30N 32°30' W 119°42'1 1.4
2018-Jul-11 03:00N 32°31' W 119°42'1 1.6
2018-Jul-11 02:12N 32°32' W 119°43'1 1.9
2018-Jul-11 01:52N 32°32' W 119°44'1 2.1
2018-Jul-11 01:27N 32°33' W 119°44'4 5.6
2018-Jul-11 00:49N 32°34' W 119°48'2 5.7
2018-Jul-11 00:30N 32°34' W 119°50'0 0.5
2018-Jul-11 00:00N 32°35' W 119°51'1 1.7
2018-Jul-10 23:30N 32°35' W 119°51'19 7.5
2018-Jul-10 20:54N 32°51' W 120°05'3 8.2
2018-Jul-10 20:30N 32°54' W 120°07'7 8.1
2018-Jul-10 19:37N 32°60' W 120°12'1 8.1
2018-Jul-10 19:30N 33°00' W 120°12'4 7.9
2018-Jul-10 19:00N 33°04' W 120°15'4 7.5
2018-Jul-10 18:30N 33°07' W 120°18'3 6.6
2018-Jul-10 18:00N 33°09' W 120°20'1 1.0
2018-Jul-10 17:31N 33°09' W 120°21'1 2.1
2018-Jul-10 16:59N 33°10' W 120°22'2 3.4
2018-Jul-10 16:30N 33°09' W 120°20'4 7.6
2018-Jul-10 16:00N 33°06' W 120°17'3 4.5
2018-Jul-10 15:24N 33°04' W 120°14'0 0.7
2018-Jul-10 15:00N 33°04' W 120°14'2 3.0
2018-Jul-10 14:30N 33°06' W 120°14'1 1.3
2018-Jul-10 14:00N 33°07' W 120°14'1 1.4
2018-Jul-10 13:30N 33°07' W 120°15'1 2.7
2018-Jul-10 13:00N 33°08' W 120°16'1 2.0
2018-Jul-10 12:30N 33°07' W 120°16'2 3.7
2018-Jul-10 12:00N 33°08' W 120°17'2 4.3
2018-Jul-10 11:30N 33°10' W 120°18'2 4.3
2018-Jul-10 11:00N 33°13' W 120°18'2 4.3
2018-Jul-10 10:30N 33°15' W 120°18'2 4.4
2018-Jul-10 10:00N 33°17' W 120°18'2 5.0
2018-Jul-10 09:30N 33°19' W 120°18'3 5.2
2018-Jul-10 09:00N 33°22' W 120°18'3 5.3
2018-Jul-10 08:30N 33°25' W 120°19'2 4.7
2018-Jul-10 08:00N 33°27' W 120°19'2 3.8
2018-Jul-10 07:31N 33°29' W 120°19'2 4.1
2018-Jul-10 07:00N 33°31' W 120°19'2 4.3
2018-Jul-10 06:30N 33°33' W 120°19'2 4.1
2018-Jul-10 06:00N 33°35' W 120°19'2 4.0
2018-Jul-10 05:30N 33°37' W 120°19'2 4.0
2018-Jul-10 05:00N 33°39' W 120°19'2 3.8
2018-Jul-10 04:30N 33°41' W 120°19'2 4.9
2018-Jul-10 03:59N 33°44' W 120°19'2 5.0
2018-Jul-10 03:30N 33°46' W 120°19'2 4.7
2018-Jul-10 03:00N 33°48' W 120°18'2 4.4
2018-Jul-10 02:30N 33°50' W 120°18'1 1.4
2018-Jul-10 02:00N 33°51' W 120°18'1 2.0
2018-Jul-10 01:29N 33°52' W 120°19'1 1.3
2018-Jul-10 00:59N 33°52' W 120°18'3 6.6
2018-Jul-10 00:30N 33°50' W 120°15'4 7.3
2018-Jul-10 00:00N 33°49' W 120°11'4 7.0
2018-Jul-09 23:29N 33°47' W 120°07'3 6.8
2018-Jul-09 23:00N 33°45' W 120°04'1 0.9
2018-Jul-09 22:18N 33°45' W 120°03'1 3.7
2018-Jul-09 21:59N 33°46' W 120°03'3 5.2
2018-Jul-09 21:30N 33°44' W 120°03'0 0.3
2018-Jul-09 21:00N 33°44' W 120°03'4 7.2
2018-Jul-09 20:30N 33°46' W 119°59'4 7.4
2018-Jul-09 20:00N 33°48' W 119°56'4 7.6
2018-Jul-09 19:30N 33°50' W 119°52'1 1.3
2018-Jul-09 19:00N 33°50' W 119°51'1 1.9
2018-Jul-09 18:30N 33°51' W 119°52'0 0.6
2018-Jul-09 18:00N 33°51' W 119°52'1 1.6
2018-Jul-09 17:30N 33°51' W 119°53'2 3.6
2018-Jul-09 17:00N 33°52' W 119°52'4 7.0
2018-Jul-09 16:29N 33°53' W 119°47'3 5.8
2018-Jul-09 16:00N 33°54' W 119°44'2 4.4
2018-Jul-09 15:30N 33°54' W 119°42'1 1.5
2018-Jul-09 15:00N 33°54' W 119°41'1 1.5
2018-Jul-09 14:30N 33°55' W 119°40'1 1.8
2018-Jul-09 14:00N 33°55' W 119°39'1 1.1
2018-Jul-09 13:30N 33°55' W 119°40'3 6.0
2018-Jul-09 13:00N 33°55' W 119°43'1 1.8
2018-Jul-09 12:30N 33°55' W 119°43'1 1.7
2018-Jul-09 12:00N 33°55' W 119°44'2 4.2
2018-Jul-09 11:30N 33°56' W 119°47'3 6.0
2018-Jul-09 11:00N 33°57' W 119°50'4 8.5
2018-Jul-09 10:30N 33°59' W 119°54'4 7.9
2018-Jul-09 10:00N 34°03' W 119°56'4 7.5
2018-Jul-09 09:28N 34°07' W 119°55'4 7.5
2018-Jul-09 09:00N 34°10' W 119°53'4 7.7
2018-Jul-09 08:28N 34°13' W 119°50'4 8.1
2018-Jul-09 08:00N 34°16' W 119°47'4 8.2
2018-Jul-09 07:30N 34°19' W 119°44'4 8.1
2018-Jul-09 07:00N 34°23' W 119°41'2 3.5
2018-Jul-09 06:30N 34°24' W 119°41'0 0.0
2018-Jul-09 06:01N 34°24' W 119°41'0 0.0
2018-Jul-09 05:30N 34°24' W 119°41'0 0.0
2018-Jul-09 05:00N 34°24' W 119°41'0 0.0
2018-Jul-09 04:29N 34°24' W 119°41'0 0.0
2018-Jul-09 04:00N 34°24' W 119°41'0 0.0
2018-Jul-09 03:30N 34°24' W 119°41'0 0.0
2018-Jul-09 03:01N 34°24' W 119°41'  

Dump ship's entire track history